sensor_id;sensor_type;location;lat;lon;timestamp;P1;durP1;ratioP1;P2;durP2;ratioP2
8978;SDS011;4524;51.364;5.448;2023-03-12T00:00:10;8.47;;;5.53;;
8978;SDS011;4524;51.364;5.448;2023-03-12T00:02:40;9.93;;;5.78;;
8978;SDS011;4524;51.364;5.448;2023-03-12T00:05:09;8.20;;;5.68;;
8978;SDS011;4524;51.364;5.448;2023-03-12T00:07:37;8.98;;;5.57;;
8978;SDS011;4524;51.364;5.448;2023-03-12T00:10:06;8.23;;;5.60;;
8978;SDS011;4524;51.364;5.448;2023-03-12T00:12:34;8.63;;;5.13;;
8978;SDS011;4524;51.364;5.448;2023-03-12T00:15:03;7.47;;;5.55;;
8978;SDS011;4524;51.364;5.448;2023-03-12T00:17:31;8.57;;;5.50;;
8978;SDS011;4524;51.364;5.448;2023-03-12T00:20:02;8.33;;;5.43;;
8978;SDS011;4524;51.364;5.448;2023-03-12T00:22:31;8.88;;;5.45;;
8978;SDS011;4524;51.364;5.448;2023-03-12T00:25:00;7.88;;;5.28;;
8978;SDS011;4524;51.364;5.448;2023-03-12T00:27:28;9.70;;;5.60;;
8978;SDS011;4524;51.364;5.448;2023-03-12T00:29:56;9.90;;;5.87;;
8978;SDS011;4524;51.364;5.448;2023-03-12T00:32:24;7.97;;;5.80;;
8978;SDS011;4524;51.364;5.448;2023-03-12T00:34:53;11.32;;;5.90;;
8978;SDS011;4524;51.364;5.448;2023-03-12T00:37:23;7.82;;;5.90;;
8978;SDS011;4524;51.364;5.448;2023-03-12T00:39:51;8.80;;;5.80;;
8978;SDS011;4524;51.364;5.448;2023-03-12T00:42:19;8.07;;;5.70;;
8978;SDS011;4524;51.364;5.448;2023-03-12T00:44:47;9.50;;;6.05;;
8978;SDS011;4524;51.364;5.448;2023-03-12T00:47:15;8.70;;;6.13;;
8978;SDS011;4524;51.364;5.448;2023-03-12T00:49:43;8.02;;;6.18;;
8978;SDS011;4524;51.364;5.448;2023-03-12T00:52:12;13.23;;;6.28;;
8978;SDS011;4524;51.364;5.448;2023-03-12T00:54:41;7.53;;;5.82;;
8978;SDS011;4524;51.364;5.448;2023-03-12T00:57:09;9.13;;;5.90;;
8978;SDS011;4524;51.364;5.448;2023-03-12T00:59:38;9.93;;;6.20;;
8978;SDS011;4524;51.364;5.448;2023-03-12T01:02:06;7.73;;;5.60;;
8978;SDS011;4524;51.364;5.448;2023-03-12T01:04:35;10.27;;;6.20;;
8978;SDS011;4524;51.364;5.448;2023-03-12T01:07:03;9.57;;;5.85;;
8978;SDS011;4524;51.364;5.448;2023-03-12T01:09:31;8.40;;;6.07;;
8978;SDS011;4524;51.364;5.448;2023-03-12T01:12:00;9.90;;;5.95;;
8978;SDS011;4524;51.364;5.448;2023-03-12T01:14:28;8.35;;;6.10;;
8978;SDS011;4524;51.364;5.448;2023-03-12T01:16:57;9.50;;;6.55;;
8978;SDS011;4524;51.364;5.448;2023-03-12T01:19:25;10.05;;;6.28;;
8978;SDS011;4524;51.364;5.448;2023-03-12T01:21:53;10.43;;;6.30;;
8978;SDS011;4524;51.364;5.448;2023-03-12T01:24:21;8.73;;;6.20;;
8978;SDS011;4524;51.364;5.448;2023-03-12T01:26:49;9.30;;;6.17;;
8978;SDS011;4524;51.364;5.448;2023-03-12T01:29:18;8.90;;;5.90;;
8978;SDS011;4524;51.364;5.448;2023-03-12T01:31:46;9.80;;;6.00;;
8978;SDS011;4524;51.364;5.448;2023-03-12T01:34:14;9.87;;;6.10;;
8978;SDS011;4524;51.364;5.448;2023-03-12T01:36:42;8.80;;;6.22;;
8978;SDS011;4524;51.364;5.448;2023-03-12T01:39:13;10.38;;;6.38;;
8978;SDS011;4524;51.364;5.448;2023-03-12T01:41:41;9.00;;;6.20;;
8978;SDS011;4524;51.364;5.448;2023-03-12T01:44:10;8.68;;;6.05;;
8978;SDS011;4524;51.364;5.448;2023-03-12T01:46:42;9.57;;;6.18;;
8978;SDS011;4524;51.364;5.448;2023-03-12T01:49:21;8.95;;;6.25;;
8978;SDS011;4524;51.364;5.448;2023-03-12T01:51:53;8.45;;;6.05;;
8978;SDS011;4524;51.364;5.448;2023-03-12T01:54:29;9.65;;;6.03;;
8978;SDS011;4524;51.364;5.448;2023-03-12T01:57:05;9.10;;;6.18;;
8978;SDS011;4524;51.364;5.448;2023-03-12T01:59:38;8.50;;;6.20;;
8978;SDS011;4524;51.364;5.448;2023-03-12T02:02:10;9.38;;;5.95;;
8978;SDS011;4524;51.364;5.448;2023-03-12T02:04:41;9.35;;;6.15;;
8978;SDS011;4524;51.364;5.448;2023-03-12T02:07:13;12.73;;;6.85;;
8978;SDS011;4524;51.364;5.448;2023-03-12T02:09:44;8.77;;;6.05;;
8978;SDS011;4524;51.364;5.448;2023-03-12T02:12:13;11.80;;;6.53;;
8978;SDS011;4524;51.364;5.448;2023-03-12T02:14:42;9.50;;;6.30;;
8978;SDS011;4524;51.364;5.448;2023-03-12T02:17:12;8.05;;;6.43;;
8978;SDS011;4524;51.364;5.448;2023-03-12T02:19:42;7.82;;;5.75;;
8978;SDS011;4524;51.364;5.448;2023-03-12T02:22:15;7.35;;;5.78;;
8978;SDS011;4524;51.364;5.448;2023-03-12T02:24:45;9.55;;;6.10;;
8978;SDS011;4524;51.364;5.448;2023-03-12T02:27:20;9.48;;;6.22;;
8978;SDS011;4524;51.364;5.448;2023-03-12T02:29:48;7.80;;;6.10;;
8978;SDS011;4524;51.364;5.448;2023-03-12T02:32:19;10.20;;;6.15;;
8978;SDS011;4524;51.364;5.448;2023-03-12T02:34:50;10.38;;;6.50;;
8978;SDS011;4524;51.364;5.448;2023-03-12T02:37:18;8.57;;;6.20;;
8978;SDS011;4524;51.364;5.448;2023-03-12T02:39:49;7.55;;;5.93;;
8978;SDS011;4524;51.364;5.448;2023-03-12T02:42:22;9.48;;;6.65;;
8978;SDS011;4524;51.364;5.448;2023-03-12T02:44:51;10.32;;;6.70;;
8978;SDS011;4524;51.364;5.448;2023-03-12T02:47:20;9.13;;;6.18;;
8978;SDS011;4524;51.364;5.448;2023-03-12T02:49:47;10.70;;;6.30;;
8978;SDS011;4524;51.364;5.448;2023-03-12T02:52:16;9.48;;;6.30;;
8978;SDS011;4524;51.364;5.448;2023-03-12T02:54:44;11.30;;;6.45;;
8978;SDS011;4524;51.364;5.448;2023-03-12T02:57:11;8.82;;;6.32;;
8978;SDS011;4524;51.364;5.448;2023-03-12T02:59:41;9.85;;;6.72;;
8978;SDS011;4524;51.364;5.448;2023-03-12T03:02:09;8.40;;;6.50;;
8978;SDS011;4524;51.364;5.448;2023-03-12T03:04:38;8.65;;;6.40;;
8978;SDS011;4524;51.364;5.448;2023-03-12T03:07:06;9.80;;;6.50;;
8978;SDS011;4524;51.364;5.448;2023-03-12T03:09:34;9.57;;;6.47;;
8978;SDS011;4524;51.364;5.448;2023-03-12T03:12:02;9.90;;;6.40;;
8978;SDS011;4524;51.364;5.448;2023-03-12T03:14:32;9.32;;;6.25;;
8978;SDS011;4524;51.364;5.448;2023-03-12T03:17:02;9.27;;;6.50;;
8978;SDS011;4524;51.364;5.448;2023-03-12T03:19:30;9.40;;;6.45;;
8978;SDS011;4524;51.364;5.448;2023-03-12T03:21:58;8.40;;;6.22;;
8978;SDS011;4524;51.364;5.448;2023-03-12T03:24:26;9.82;;;6.40;;
8978;SDS011;4524;51.364;5.448;2023-03-12T03:26:54;9.43;;;6.70;;
8978;SDS011;4524;51.364;5.448;2023-03-12T03:29:22;8.15;;;6.43;;
8978;SDS011;4524;51.364;5.448;2023-03-12T03:31:50;10.70;;;6.67;;
8978;SDS011;4524;51.364;5.448;2023-03-12T03:34:19;7.60;;;6.70;;
8978;SDS011;4524;51.364;5.448;2023-03-12T03:36:47;10.30;;;6.40;;
8978;SDS011;4524;51.364;5.448;2023-03-12T03:39:16;9.23;;;6.30;;
8978;SDS011;4524;51.364;5.448;2023-03-12T03:41:45;9.25;;;6.65;;
8978;SDS011;4524;51.364;5.448;2023-03-12T03:44:16;9.45;;;6.30;;
8978;SDS011;4524;51.364;5.448;2023-03-12T03:46:45;9.40;;;6.70;;
8978;SDS011;4524;51.364;5.448;2023-03-12T03:49:13;10.70;;;6.68;;
8978;SDS011;4524;51.364;5.448;2023-03-12T03:51:43;10.93;;;6.68;;
8978;SDS011;4524;51.364;5.448;2023-03-12T03:54:14;11.82;;;7.03;;
8978;SDS011;4524;51.364;5.448;2023-03-12T03:56:43;9.13;;;6.35;;
8978;SDS011;4524;51.364;5.448;2023-03-12T03:59:12;9.88;;;6.25;;
8978;SDS011;4524;51.364;5.448;2023-03-12T04:01:41;8.10;;;6.00;;
8978;SDS011;4524;51.364;5.448;2023-03-12T04:04:10;9.38;;;5.93;;
8978;SDS011;4524;51.364;5.448;2023-03-12T04:06:38;9.15;;;5.93;;
8978;SDS011;4524;51.364;5.448;2023-03-12T04:09:08;8.75;;;6.10;;
8978;SDS011;4524;51.364;5.448;2023-03-12T04:11:38;8.27;;;5.80;;
8978;SDS011;4524;51.364;5.448;2023-03-12T04:14:08;8.32;;;5.72;;
8978;SDS011;4524;51.364;5.448;2023-03-12T04:16:38;9.40;;;5.70;;
8978;SDS011;4524;51.364;5.448;2023-03-12T04:19:06;8.68;;;5.80;;
8978;SDS011;4524;51.364;5.448;2023-03-12T04:21:34;6.93;;;5.20;;
8978;SDS011;4524;51.364;5.448;2023-03-12T04:24:05;7.75;;;5.32;;
8978;SDS011;4524;51.364;5.448;2023-03-12T04:26:35;8.63;;;5.80;;
8978;SDS011;4524;51.364;5.448;2023-03-12T04:29:06;9.00;;;5.32;;
8978;SDS011;4524;51.364;5.448;2023-03-12T04:31:35;7.63;;;5.00;;
8978;SDS011;4524;51.364;5.448;2023-03-12T04:34:03;7.85;;;5.43;;
8978;SDS011;4524;51.364;5.448;2023-03-12T04:36:31;8.82;;;5.30;;
8978;SDS011;4524;51.364;5.448;2023-03-12T04:39:00;9.70;;;5.35;;
8978;SDS011;4524;51.364;5.448;2023-03-12T04:41:32;6.25;;;4.90;;
8978;SDS011;4524;51.364;5.448;2023-03-12T04:44:07;7.57;;;4.60;;
8978;SDS011;4524;51.364;5.448;2023-03-12T04:46:38;8.27;;;4.78;;
8978;SDS011;4524;51.364;5.448;2023-03-12T04:49:08;6.43;;;4.78;;
8978;SDS011;4524;51.364;5.448;2023-03-12T04:51:38;7.65;;;4.63;;
8978;SDS011;4524;51.364;5.448;2023-03-12T04:54:06;7.20;;;4.85;;
8978;SDS011;4524;51.364;5.448;2023-03-12T04:56:35;6.65;;;4.30;;
8978;SDS011;4524;51.364;5.448;2023-03-12T04:59:05;7.07;;;4.72;;
8978;SDS011;4524;51.364;5.448;2023-03-12T05:01:35;7.55;;;4.50;;
8978;SDS011;4524;51.364;5.448;2023-03-12T05:04:10;10.20;;;4.35;;
8978;SDS011;4524;51.364;5.448;2023-03-12T05:06:38;9.52;;;4.85;;
8978;SDS011;4524;51.364;5.448;2023-03-12T05:09:06;11.77;;;4.90;;
8978;SDS011;4524;51.364;5.448;2023-03-12T05:11:35;10.55;;;5.22;;
8978;SDS011;4524;51.364;5.448;2023-03-12T05:14:07;9.98;;;5.32;;
8978;SDS011;4524;51.364;5.448;2023-03-12T05:16:35;11.38;;;5.20;;
8978;SDS011;4524;51.364;5.448;2023-03-12T05:19:04;10.13;;;5.30;;
8978;SDS011;4524;51.364;5.448;2023-03-12T05:21:33;8.30;;;4.85;;
8978;SDS011;4524;51.364;5.448;2023-03-12T05:24:01;8.43;;;5.28;;
8978;SDS011;4524;51.364;5.448;2023-03-12T05:26:29;8.45;;;4.95;;
8978;SDS011;4524;51.364;5.448;2023-03-12T05:29:11;7.65;;;4.88;;
8978;SDS011;4524;51.364;5.448;2023-03-12T05:31:39;9.52;;;5.47;;
8978;SDS011;4524;51.364;5.448;2023-03-12T05:34:09;9.20;;;5.28;;
8978;SDS011;4524;51.364;5.448;2023-03-12T05:36:40;10.05;;;5.20;;
8978;SDS011;4524;51.364;5.448;2023-03-12T05:39:08;11.30;;;5.30;;
8978;SDS011;4524;51.364;5.448;2023-03-12T05:41:36;10.93;;;5.07;;
8978;SDS011;4524;51.364;5.448;2023-03-12T05:44:10;8.10;;;5.40;;
8978;SDS011;4524;51.364;5.448;2023-03-12T05:46:44;9.57;;;5.70;;
8978;SDS011;4524;51.364;5.448;2023-03-12T05:49:12;8.35;;;5.25;;
8978;SDS011;4524;51.364;5.448;2023-03-12T05:51:40;9.65;;;5.47;;
8978;SDS011;4524;51.364;5.448;2023-03-12T05:54:09;9.32;;;5.53;;
8978;SDS011;4524;51.364;5.448;2023-03-12T05:56:37;8.60;;;5.63;;
8978;SDS011;4524;51.364;5.448;2023-03-12T05:59:06;8.85;;;5.53;;
8978;SDS011;4524;51.364;5.448;2023-03-12T06:01:38;7.90;;;5.53;;
8978;SDS011;4524;51.364;5.448;2023-03-12T06:04:07;7.97;;;5.30;;
8978;SDS011;4524;51.364;5.448;2023-03-12T06:06:36;10.02;;;5.47;;
8978;SDS011;4524;51.364;5.448;2023-03-12T06:09:04;10.65;;;6.03;;
8978;SDS011;4524;51.364;5.448;2023-03-12T06:11:33;9.73;;;5.50;;
8978;SDS011;4524;51.364;5.448;2023-03-12T06:14:01;8.25;;;5.50;;
8978;SDS011;4524;51.364;5.448;2023-03-12T06:16:31;8.90;;;5.67;;
8978;SDS011;4524;51.364;5.448;2023-03-12T06:19:01;9.53;;;5.70;;
8978;SDS011;4524;51.364;5.448;2023-03-12T06:21:31;8.82;;;5.40;;
8978;SDS011;4524;51.364;5.448;2023-03-12T06:24:02;9.05;;;5.72;;
8978;SDS011;4524;51.364;5.448;2023-03-12T06:26:39;9.52;;;5.75;;
8978;SDS011;4524;51.364;5.448;2023-03-12T06:29:07;8.10;;;5.63;;
8978;SDS011;4524;51.364;5.448;2023-03-12T06:31:35;8.25;;;5.32;;
8978;SDS011;4524;51.364;5.448;2023-03-12T06:34:06;7.80;;;5.15;;
8978;SDS011;4524;51.364;5.448;2023-03-12T06:36:35;8.05;;;5.60;;
8978;SDS011;4524;51.364;5.448;2023-03-12T06:39:03;10.95;;;6.20;;
8978;SDS011;4524;51.364;5.448;2023-03-12T06:41:33;9.97;;;5.93;;
8978;SDS011;4524;51.364;5.448;2023-03-12T06:44:02;8.93;;;5.93;;
8978;SDS011;4524;51.364;5.448;2023-03-12T06:46:31;10.93;;;6.00;;
8978;SDS011;4524;51.364;5.448;2023-03-12T06:48:59;10.13;;;6.10;;
8978;SDS011;4524;51.364;5.448;2023-03-12T06:51:29;7.95;;;6.50;;
8978;SDS011;4524;51.364;5.448;2023-03-12T06:53:57;10.03;;;6.23;;
8978;SDS011;4524;51.364;5.448;2023-03-12T06:56:26;10.02;;;6.00;;
8978;SDS011;4524;51.364;5.448;2023-03-12T06:58:54;10.60;;;6.60;;
8978;SDS011;4524;51.364;5.448;2023-03-12T07:01:22;9.60;;;6.40;;
8978;SDS011;4524;51.364;5.448;2023-03-12T07:03:50;9.68;;;6.50;;
8978;SDS011;4524;51.364;5.448;2023-03-12T07:06:20;8.25;;;6.50;;
8978;SDS011;4524;51.364;5.448;2023-03-12T07:08:50;10.23;;;6.97;;
8978;SDS011;4524;51.364;5.448;2023-03-12T07:11:19;8.05;;;6.80;;
8978;SDS011;4524;51.364;5.448;2023-03-12T07:13:47;7.93;;;6.43;;
8978;SDS011;4524;51.364;5.448;2023-03-12T07:16:15;10.07;;;6.53;;
8978;SDS011;4524;51.364;5.448;2023-03-12T07:18:43;11.60;;;6.60;;
8978;SDS011;4524;51.364;5.448;2023-03-12T07:21:11;8.15;;;6.30;;
8978;SDS011;4524;51.364;5.448;2023-03-12T07:23:39;9.90;;;6.75;;
8978;SDS011;4524;51.364;5.448;2023-03-12T07:26:08;10.27;;;7.13;;
8978;SDS011;4524;51.364;5.448;2023-03-12T07:28:36;9.45;;;7.55;;
8978;SDS011;4524;51.364;5.448;2023-03-12T07:31:04;9.53;;;6.97;;
8978;SDS011;4524;51.364;5.448;2023-03-12T07:33:32;11.30;;;6.85;;
8978;SDS011;4524;51.364;5.448;2023-03-12T07:36:01;11.57;;;7.95;;
8978;SDS011;4524;51.364;5.448;2023-03-12T07:38:29;10.70;;;7.55;;
8978;SDS011;4524;51.364;5.448;2023-03-12T07:40:58;11.43;;;7.67;;
8978;SDS011;4524;51.364;5.448;2023-03-12T07:43:27;11.05;;;7.88;;
8978;SDS011;4524;51.364;5.448;2023-03-12T07:45:55;8.95;;;7.13;;
8978;SDS011;4524;51.364;5.448;2023-03-12T07:48:23;11.05;;;7.50;;
8978;SDS011;4524;51.364;5.448;2023-03-12T07:50:51;10.35;;;8.00;;
8978;SDS011;4524;51.364;5.448;2023-03-12T07:53:19;9.02;;;7.63;;
8978;SDS011;4524;51.364;5.448;2023-03-12T07:55:47;9.70;;;7.88;;
8978;SDS011;4524;51.364;5.448;2023-03-12T07:58:16;9.10;;;8.10;;
8978;SDS011;4524;51.364;5.448;2023-03-12T08:00:46;11.60;;;8.90;;
8978;SDS011;4524;51.364;5.448;2023-03-12T08:03:14;9.75;;;8.70;;
8978;SDS011;4524;51.364;5.448;2023-03-12T08:05:43;10.15;;;9.02;;
8978;SDS011;4524;51.364;5.448;2023-03-12T08:08:11;11.50;;;9.55;;
8978;SDS011;4524;51.364;5.448;2023-03-12T08:10:40;10.98;;;9.73;;
8978;SDS011;4524;51.364;5.448;2023-03-12T08:13:08;11.27;;;10.18;;
8978;SDS011;4524;51.364;5.448;2023-03-12T08:15:36;11.45;;;10.25;;
8978;SDS011;4524;51.364;5.448;2023-03-12T08:18:05;11.93;;;10.65;;
8978;SDS011;4524;51.364;5.448;2023-03-12T08:20:33;11.80;;;10.60;;
8978;SDS011;4524;51.364;5.448;2023-03-12T08:23:01;12.68;;;11.43;;
8978;SDS011;4524;51.364;5.448;2023-03-12T08:25:29;12.07;;;10.88;;
8978;SDS011;4524;51.364;5.448;2023-03-12T08:27:57;12.93;;;11.48;;
8978;SDS011;4524;51.364;5.448;2023-03-12T08:30:25;15.23;;;13.70;;
8978;SDS011;4524;51.364;5.448;2023-03-12T08:32:55;14.90;;;13.32;;
8978;SDS011;4524;51.364;5.448;2023-03-12T08:35:25;14.23;;;12.85;;
8978;SDS011;4524;51.364;5.448;2023-03-12T08:37:53;15.02;;;13.55;;
8978;SDS011;4524;51.364;5.448;2023-03-12T08:40:22;16.23;;;14.52;;
8978;SDS011;4524;51.364;5.448;2023-03-12T08:42:50;16.15;;;14.48;;
8978;SDS011;4524;51.364;5.448;2023-03-12T08:45:18;14.60;;;13.18;;
8978;SDS011;4524;51.364;5.448;2023-03-12T08:47:46;15.95;;;14.40;;
8978;SDS011;4524;51.364;5.448;2023-03-12T08:50:15;16.75;;;14.75;;
8978;SDS011;4524;51.364;5.448;2023-03-12T08:52:44;14.00;;;12.65;;
8978;SDS011;4524;51.364;5.448;2023-03-12T08:55:12;15.43;;;13.82;;
8978;SDS011;4524;51.364;5.448;2023-03-12T08:57:41;14.55;;;13.00;;
8978;SDS011;4524;51.364;5.448;2023-03-12T09:00:09;14.50;;;12.43;;
8978;SDS011;4524;51.364;5.448;2023-03-12T09:02:42;14.18;;;12.43;;
8978;SDS011;4524;51.364;5.448;2023-03-12T09:05:11;14.68;;;13.05;;
8978;SDS011;4524;51.364;5.448;2023-03-12T09:07:38;21.35;;;15.27;;
8978;SDS011;4524;51.364;5.448;2023-03-12T09:10:08;13.98;;;11.82;;
8978;SDS011;4524;51.364;5.448;2023-03-12T09:12:37;15.37;;;12.13;;
8978;SDS011;4524;51.364;5.448;2023-03-12T09:15:06;14.38;;;11.85;;
8978;SDS011;4524;51.364;5.448;2023-03-12T09:17:34;15.00;;;12.93;;
8978;SDS011;4524;51.364;5.448;2023-03-12T09:20:02;15.15;;;12.05;;
8978;SDS011;4524;51.364;5.448;2023-03-12T09:22:33;12.85;;;10.90;;
8978;SDS011;4524;51.364;5.448;2023-03-12T09:25:03;12.05;;;10.48;;
8978;SDS011;4524;51.364;5.448;2023-03-12T09:27:35;12.27;;;10.97;;
8978;SDS011;4524;51.364;5.448;2023-03-12T09:30:04;12.60;;;11.30;;
8978;SDS011;4524;51.364;5.448;2023-03-12T09:32:34;15.17;;;12.40;;
8978;SDS011;4524;51.364;5.448;2023-03-12T09:35:02;11.40;;;10.20;;
8978;SDS011;4524;51.364;5.448;2023-03-12T09:37:31;14.45;;;11.25;;
8978;SDS011;4524;51.364;5.448;2023-03-12T09:39:59;13.15;;;11.02;;
8978;SDS011;4524;51.364;5.448;2023-03-12T09:42:31;15.20;;;13.07;;
8978;SDS011;4524;51.364;5.448;2023-03-12T09:45:06;14.65;;;12.27;;
8978;SDS011;4524;51.364;5.448;2023-03-12T09:47:41;12.75;;;11.27;;
8978;SDS011;4524;51.364;5.448;2023-03-12T09:50:16;16.38;;;12.75;;
8978;SDS011;4524;51.364;5.448;2023-03-12T09:52:50;15.93;;;13.18;;
8978;SDS011;4524;51.364;5.448;2023-03-12T09:55:23;18.10;;;13.80;;
8978;SDS011;4524;51.364;5.448;2023-03-12T09:58:13;17.23;;;14.23;;
8978;SDS011;4524;51.364;5.448;2023-03-12T10:00:44;17.63;;;14.13;;
8978;SDS011;4524;51.364;5.448;2023-03-12T10:03:16;21.08;;;16.63;;
8978;SDS011;4524;51.364;5.448;2023-03-12T10:05:57;17.45;;;15.10;;
8978;SDS011;4524;51.364;5.448;2023-03-12T10:08:32;23.27;;;17.55;;
8978;SDS011;4524;51.364;5.448;2023-03-12T10:11:09;24.90;;;17.77;;
8978;SDS011;4524;51.364;5.448;2023-03-12T10:13:49;23.70;;;17.98;;
8978;SDS011;4524;51.364;5.448;2023-03-12T10:16:33;19.15;;;15.93;;
8978;SDS011;4524;51.364;5.448;2023-03-12T10:19:12;24.38;;;18.75;;
8978;SDS011;4524;51.364;5.448;2023-03-12T10:21:56;28.23;;;19.33;;
8978;SDS011;4524;51.364;5.448;2023-03-12T10:24:37;24.60;;;19.55;;
8978;SDS011;4524;51.364;5.448;2023-03-12T10:27:13;24.02;;;18.85;;
8978;SDS011;4524;51.364;5.448;2023-03-12T10:29:45;23.37;;;18.63;;
8978;SDS011;4524;51.364;5.448;2023-03-12T10:32:16;24.77;;;18.60;;
8978;SDS011;4524;51.364;5.448;2023-03-12T10:34:49;27.13;;;19.42;;
8978;SDS011;4524;51.364;5.448;2023-03-12T10:37:20;28.00;;;20.07;;
8978;SDS011;4524;51.364;5.448;2023-03-12T10:39:50;27.92;;;19.50;;
8978;SDS011;4524;51.364;5.448;2023-03-12T10:42:19;28.98;;;19.95;;
8978;SDS011;4524;51.364;5.448;2023-03-12T10:44:51;32.33;;;21.00;;
8978;SDS011;4524;51.364;5.448;2023-03-12T10:47:26;25.67;;;18.38;;
8978;SDS011;4524;51.364;5.448;2023-03-12T10:50:14;28.30;;;19.40;;
8978;SDS011;4524;51.364;5.448;2023-03-12T10:52:43;30.90;;;19.77;;
8978;SDS011;4524;51.364;5.448;2023-03-12T10:55:19;25.92;;;17.58;;
8978;SDS011;4524;51.364;5.448;2023-03-12T10:57:49;29.00;;;18.67;;
8978;SDS011;4524;51.364;5.448;2023-03-12T11:00:20;31.63;;;19.63;;
8978;SDS011;4524;51.364;5.448;2023-03-12T11:02:56;29.53;;;18.67;;
8978;SDS011;4524;51.364;5.448;2023-03-12T11:05:27;30.70;;;19.03;;
8978;SDS011;4524;51.364;5.448;2023-03-12T11:07:57;28.85;;;19.42;;
8978;SDS011;4524;51.364;5.448;2023-03-12T11:10:37;33.30;;;20.85;;
8978;SDS011;4524;51.364;5.448;2023-03-12T11:13:22;33.75;;;21.33;;
8978;SDS011;4524;51.364;5.448;2023-03-12T11:15:53;32.10;;;20.55;;
8978;SDS011;4524;51.364;5.448;2023-03-12T11:18:24;32.23;;;19.97;;
8978;SDS011;4524;51.364;5.448;2023-03-12T11:21:12;33.50;;;20.70;;
8978;SDS011;4524;51.364;5.448;2023-03-12T11:23:43;34.53;;;20.50;;
8978;SDS011;4524;51.364;5.448;2023-03-12T11:26:15;40.10;;;21.65;;
8978;SDS011;4524;51.364;5.448;2023-03-12T11:28:46;36.17;;;19.70;;
8978;SDS011;4524;51.364;5.448;2023-03-12T11:31:19;35.08;;;18.08;;
8978;SDS011;4524;51.364;5.448;2023-03-12T11:33:50;32.33;;;19.67;;
8978;SDS011;4524;51.364;5.448;2023-03-12T11:36:26;37.15;;;19.58;;
8978;SDS011;4524;51.364;5.448;2023-03-12T11:39:04;33.40;;;17.83;;
8978;SDS011;4524;51.364;5.448;2023-03-12T11:41:49;30.10;;;17.00;;
8978;SDS011;4524;51.364;5.448;2023-03-12T11:44:34;36.10;;;17.98;;
8978;SDS011;4524;51.364;5.448;2023-03-12T11:47:17;31.38;;;16.38;;
8978;SDS011;4524;51.364;5.448;2023-03-12T11:49:58;32.15;;;15.75;;
8978;SDS011;4524;51.364;5.448;2023-03-12T11:52:41;31.92;;;15.55;;
8978;SDS011;4524;51.364;5.448;2023-03-12T11:55:35;31.15;;;14.60;;
8978;SDS011;4524;51.364;5.448;2023-03-12T11:58:15;29.87;;;14.13;;
8978;SDS011;4524;51.364;5.448;2023-03-12T12:00:54;29.03;;;14.47;;
8978;SDS011;4524;51.364;5.448;2023-03-12T12:03:34;26.52;;;12.57;;
8978;SDS011;4524;51.364;5.448;2023-03-12T12:06:16;31.80;;;13.80;;
8978;SDS011;4524;51.364;5.448;2023-03-12T12:08:52;24.40;;;11.90;;
8978;SDS011;4524;51.364;5.448;2023-03-12T12:11:32;25.50;;;12.30;;
8978;SDS011;4524;51.364;5.448;2023-03-12T12:14:14;25.88;;;12.13;;
8978;SDS011;4524;51.364;5.448;2023-03-12T12:16:59;28.92;;;12.80;;
8978;SDS011;4524;51.364;5.448;2023-03-12T12:19:42;25.65;;;13.07;;
8978;SDS011;4524;51.364;5.448;2023-03-12T12:22:23;27.80;;;12.35;;
8978;SDS011;4524;51.364;5.448;2023-03-12T12:25:11;22.17;;;11.85;;
8978;SDS011;4524;51.364;5.448;2023-03-12T12:27:50;25.90;;;12.88;;
8978;SDS011;4524;51.364;5.448;2023-03-12T12:30:28;25.38;;;12.40;;
8978;SDS011;4524;51.364;5.448;2023-03-12T12:33:10;29.00;;;12.63;;
8978;SDS011;4524;51.364;5.448;2023-03-12T12:35:51;23.55;;;11.52;;
8978;SDS011;4524;51.364;5.448;2023-03-12T12:38:21;23.70;;;10.55;;
8978;SDS011;4524;51.364;5.448;2023-03-12T12:40:58;26.90;;;10.32;;
8978;SDS011;4524;51.364;5.448;2023-03-12T12:43:30;20.13;;;9.00;;
8978;SDS011;4524;51.364;5.448;2023-03-12T12:46:04;22.95;;;8.77;;
8978;SDS011;4524;51.364;5.448;2023-03-12T12:48:35;21.08;;;8.10;;
8978;SDS011;4524;51.364;5.448;2023-03-12T12:51:07;22.35;;;7.30;;
8978;SDS011;4524;51.364;5.448;2023-03-12T12:53:38;21.27;;;7.10;;
8978;SDS011;4524;51.364;5.448;2023-03-12T12:56:14;26.95;;;8.45;;
8978;SDS011;4524;51.364;5.448;2023-03-12T13:01:46;25.17;;;6.82;;
8978;SDS011;4524;51.364;5.448;2023-03-12T13:04:18;23.55;;;7.55;;
8978;SDS011;4524;51.364;5.448;2023-03-12T13:06:59;23.52;;;6.55;;
8978;SDS011;4524;51.364;5.448;2023-03-12T13:09:38;22.73;;;6.85;;
8978;SDS011;4524;51.364;5.448;2023-03-12T13:12:17;20.38;;;5.97;;
8978;SDS011;4524;51.364;5.448;2023-03-12T13:14:47;20.23;;;6.37;;
8978;SDS011;4524;51.364;5.448;2023-03-12T13:17:20;18.63;;;5.63;;
8978;SDS011;4524;51.364;5.448;2023-03-12T13:19:56;21.55;;;5.90;;
8978;SDS011;4524;51.364;5.448;2023-03-12T13:22:44;22.02;;;6.25;;
8978;SDS011;4524;51.364;5.448;2023-03-12T13:31:38;21.95;;;6.30;;
8978;SDS011;4524;51.364;5.448;2023-03-12T13:37:28;26.02;;;7.47;;
8978;SDS011;4524;51.364;5.448;2023-03-12T13:43:48;23.80;;;6.68;;
8978;SDS011;4524;51.364;5.448;2023-03-12T13:46:27;24.65;;;6.28;;
8978;SDS011;4524;51.364;5.448;2023-03-12T13:49:09;24.75;;;6.95;;
8978;SDS011;4524;51.364;5.448;2023-03-12T13:51:43;22.40;;;6.20;;
8978;SDS011;4524;51.364;5.448;2023-03-12T13:54:15;24.50;;;6.75;;
8978;SDS011;4524;51.364;5.448;2023-03-12T13:56:45;22.75;;;6.53;;
8978;SDS011;4524;51.364;5.448;2023-03-12T13:59:24;23.00;;;6.40;;
8978;SDS011;4524;51.364;5.448;2023-03-12T14:01:55;27.58;;;6.72;;
8978;SDS011;4524;51.364;5.448;2023-03-12T14:04:28;22.97;;;6.67;;
8978;SDS011;4524;51.364;5.448;2023-03-12T14:07:04;24.08;;;6.82;;
8978;SDS011;4524;51.364;5.448;2023-03-12T14:10:01;25.70;;;6.82;;
8978;SDS011;4524;51.364;5.448;2023-03-12T14:12:42;22.73;;;6.70;;
8978;SDS011;4524;51.364;5.448;2023-03-12T14:15:22;26.08;;;7.30;;
8978;SDS011;4524;51.364;5.448;2023-03-12T14:17:55;25.02;;;6.70;;
8978;SDS011;4524;51.364;5.448;2023-03-12T14:20:26;27.07;;;7.00;;
8978;SDS011;4524;51.364;5.448;2023-03-12T14:22:56;29.08;;;6.78;;
8978;SDS011;4524;51.364;5.448;2023-03-12T14:25:31;25.38;;;6.93;;
8978;SDS011;4524;51.364;5.448;2023-03-12T14:28:02;25.20;;;7.03;;
8978;SDS011;4524;51.364;5.448;2023-03-12T14:30:36;22.17;;;6.60;;
8978;SDS011;4524;51.364;5.448;2023-03-12T14:33:09;24.45;;;6.78;;
8978;SDS011;4524;51.364;5.448;2023-03-12T14:35:41;24.45;;;6.63;;
8978;SDS011;4524;51.364;5.448;2023-03-12T14:38:13;23.45;;;6.28;;
8978;SDS011;4524;51.364;5.448;2023-03-12T14:40:44;21.90;;;6.25;;
8978;SDS011;4524;51.364;5.448;2023-03-12T14:43:19;20.80;;;6.18;;
8978;SDS011;4524;51.364;5.448;2023-03-12T14:45:50;26.88;;;6.68;;
8978;SDS011;4524;51.364;5.448;2023-03-12T14:48:21;20.90;;;5.43;;
8978;SDS011;4524;51.364;5.448;2023-03-12T14:50:50;19.48;;;6.07;;
8978;SDS011;4524;51.364;5.448;2023-03-12T14:53:19;22.08;;;6.30;;
8978;SDS011;4524;51.364;5.448;2023-03-12T14:55:59;21.25;;;5.47;;
8978;SDS011;4524;51.364;5.448;2023-03-12T14:58:29;21.13;;;5.88;;
8978;SDS011;4524;51.364;5.448;2023-03-12T15:01:00;21.97;;;6.30;;
8978;SDS011;4524;51.364;5.448;2023-03-12T15:03:31;21.58;;;5.72;;
8978;SDS011;4524;51.364;5.448;2023-03-12T15:06:11;22.15;;;5.70;;
8978;SDS011;4524;51.364;5.448;2023-03-12T15:08:44;16.87;;;5.30;;
8978;SDS011;4524;51.364;5.448;2023-03-12T15:11:12;20.95;;;5.75;;
8978;SDS011;4524;51.364;5.448;2023-03-12T15:13:40;19.33;;;5.55;;
8978;SDS011;4524;51.364;5.448;2023-03-12T15:16:09;21.33;;;6.05;;
8978;SDS011;4524;51.364;5.448;2023-03-12T15:18:37;19.85;;;5.60;;
8978;SDS011;4524;51.364;5.448;2023-03-12T15:21:05;18.95;;;5.70;;
8978;SDS011;4524;51.364;5.448;2023-03-12T15:23:35;20.60;;;6.10;;
8978;SDS011;4524;51.364;5.448;2023-03-12T15:26:13;18.85;;;5.35;;
8978;SDS011;4524;51.364;5.448;2023-03-12T15:28:55;21.27;;;5.53;;
8978;SDS011;4524;51.364;5.448;2023-03-12T15:31:26;20.13;;;5.32;;
8978;SDS011;4524;51.364;5.448;2023-03-12T15:34:06;18.77;;;5.80;;
8978;SDS011;4524;51.364;5.448;2023-03-12T15:36:36;19.73;;;5.93;;
8978;SDS011;4524;51.364;5.448;2023-03-12T15:39:14;17.35;;;5.07;;
8978;SDS011;4524;51.364;5.448;2023-03-12T15:41:52;21.20;;;6.10;;
8978;SDS011;4524;51.364;5.448;2023-03-12T15:44:21;23.23;;;5.97;;